Time,TemperatureF,DewpointF,PressureIn,WindDirection,WindDirectionDegrees,WindSpeedMPH,WindSpeedGustMPH,Humidity,HourlyPrecipIn,Conditions,Clouds,dailyrainin,SoftwareType,DateUTC
2013-06-12 00:02:00,87.0,50.0,29.73,SE,144,2.0,3.0,28,0.00,,,0.00,,2013-06-12 07:02:00,
2013-06-12 00:12:00,86.0,49.0,29.73,SSE,150,1.0,1.0,28,0.00,,,0.00,,2013-06-12 07:12:00,
2013-06-12 00:22:00,86.0,50.0,29.73,SSE,162,0.0,0.0,29,0.00,,,0.00,,2013-06-12 07:22:00,
2013-06-12 00:33:00,86.0,50.0,29.74,SSE,163,0.0,0.0,29,0.00,,,0.00,,2013-06-12 07:33:00,
2013-06-12 00:43:00,85.0,51.0,29.73,East,80,1.0,1.0,31,0.00,,,0.00,,2013-06-12 07:43:00,
2013-06-12 00:53:00,85.0,51.0,29.73,East,80,1.0,1.0,31,0.00,,,0.00,,2013-06-12 07:53:00,
2013-06-12 01:02:00,84.0,52.0,29.73,East,79,0.0,0.0,33,0.00,,,0.00,,2013-06-12 08:02:00,
2013-06-12 01:12:00,84.0,52.0,29.73,East,79,0.0,0.0,33,0.00,,,0.00,,2013-06-12 08:12:00,
2013-06-12 01:22:00,83.0,51.0,29.73,East,80,0.0,0.0,33,0.00,,,0.00,,2013-06-12 08:22:00,
2013-06-12 01:33:00,83.0,52.0,29.73,East,79,0.0,0.0,34,0.00,,,0.00,,2013-06-12 08:33:00,
2013-06-12 01:42:00,82.0,53.0,29.73,East,79,0.0,0.0,37,0.00,,,0.00,,2013-06-12 08:42:00,
2013-06-12 01:53:00,82.0,53.0,29.73,East,79,0.0,0.0,37,0.00,,,0.00,,2013-06-12 08:53:00,
2013-06-12 02:01:00,81.0,53.0,29.73,East,79,0.0,0.0,38,0.00,,,0.00,,2013-06-12 09:01:00,
2013-06-12 02:11:00,80.0,51.0,29.72,SSE,147,0.0,0.0,37,0.00,,,0.00,,2013-06-12 09:11:00,
2013-06-12 02:22:00,80.0,52.0,29.72,SE,145,0.0,0.0,38,0.00,,,0.00,,2013-06-12 09:22:00,
2013-06-12 02:33:00,79.0,52.0,29.72,SSE,147,0.0,0.0,39,0.00,,,0.00,,2013-06-12 09:33:00,
2013-06-12 02:42:00,79.0,53.0,29.72,SE,145,0.0,0.0,40,0.00,,,0.00,,2013-06-12 09:42:00,
2013-06-12 02:53:00,79.0,53.0,29.72,SE,145,0.0,0.0,40,0.00,,,0.00,,2013-06-12 09:53:00,
2013-06-12 03:01:00,79.0,53.0,29.72,SSE,147,0.0,1.0,40,0.00,,,0.00,,2013-06-12 10:01:00,
2013-06-12 03:11:00,78.0,49.0,29.72,SSE,152,0.0,0.0,36,0.00,,,0.00,,2013-06-12 10:11:00,
2013-06-12 03:23:00,78.0,51.0,29.72,SSE,152,0.0,0.0,39,0.00,,,0.00,,2013-06-12 10:23:00,
2013-06-12 03:32:00,78.0,50.0,29.72,SSE,152,0.0,1.0,38,0.00,,,0.00,,2013-06-12 10:32:00,
2013-06-12 03:43:00,77.0,48.0,29.73,South,169,0.0,1.0,36,0.00,,,0.00,,2013-06-12 10:43:00,
2013-06-12 03:53:00,77.0,48.0,29.73,South,169,0.0,1.0,36,0.00,,,0.00,,2013-06-12 10:53:00,
2013-06-12 04:01:00,77.0,48.0,29.73,South,169,0.0,1.0,36,0.00,,,0.00,,2013-06-12 11:01:00,
2013-06-12 04:12:00,77.0,48.0,29.73,South,169,0.0,1.0,36,0.00,,,0.00,,2013-06-12 11:12:00,